createdAt,value
2023-04-20T00:00:02.765Z,100.00
2023-04-20T00:02:40.707Z,100.00
2023-04-20T00:05:09.160Z,100.00
2023-04-20T00:07:36.510Z,100.00
2023-04-20T00:10:03.798Z,100.00
2023-04-20T00:12:30.492Z,100.00
2023-04-20T00:14:57.242Z,100.00
2023-04-20T00:17:24.576Z,100.00
2023-04-20T00:19:51.392Z,100.00
2023-04-20T00:22:17.986Z,100.00
2023-04-20T00:24:45.200Z,100.00
2023-04-20T00:27:11.923Z,100.00
2023-04-20T00:29:38.406Z,100.00
2023-04-20T00:32:05.706Z,100.00
2023-04-20T00:34:32.290Z,100.00
2023-04-20T00:37:00.540Z,100.00
2023-04-20T00:39:27.119Z,100.00
2023-04-20T00:41:54.206Z,100.00
2023-04-20T00:44:20.816Z,100.00
2023-04-20T00:46:47.608Z,100.00
2023-04-20T00:49:14.236Z,100.00
2023-04-20T00:51:41.156Z,100.00
2023-04-20T00:54:07.998Z,100.00
2023-04-20T00:56:35.036Z,100.00
2023-04-20T00:59:02.288Z,100.00
2023-04-20T01:01:29.118Z,100.00
2023-04-20T01:03:55.773Z,100.00
2023-04-20T01:06:22.514Z,100.00
2023-04-20T01:08:52.432Z,100.00
2023-04-20T01:11:19.100Z,100.00
2023-04-20T01:13:46.099Z,100.00
2023-04-20T01:16:13.456Z,100.00
2023-04-20T01:18:47.427Z,100.00
2023-04-20T01:21:16.618Z,100.00
2023-04-20T01:23:43.495Z,100.00
2023-04-20T01:26:11.881Z,100.00
2023-04-20T01:28:38.421Z,100.00
2023-04-20T01:31:07.846Z,100.00
2023-04-20T01:33:37.677Z,100.00
2023-04-20T01:36:05.822Z,100.00
2023-04-20T01:38:34.747Z,100.00
2023-04-20T01:41:06.882Z,100.00
2023-04-20T01:43:34.768Z,100.00
2023-04-20T01:46:01.842Z,100.00
2023-04-20T01:48:28.657Z,100.00
2023-04-20T01:50:55.147Z,100.00
2023-04-20T01:53:22.042Z,100.00
2023-04-20T01:55:50.073Z,100.00
2023-04-20T01:58:16.732Z,100.00
2023-04-20T02:00:44.512Z,100.00
2023-04-20T02:03:12.000Z,100.00
2023-04-20T02:05:38.763Z,100.00
2023-04-20T02:08:05.717Z,100.00
2023-04-20T02:10:32.637Z,100.00
2023-04-20T02:12:59.088Z,100.00
2023-04-20T02:15:25.716Z,100.00
2023-04-20T02:17:52.815Z,100.00
2023-04-20T02:20:20.049Z,100.00
2023-04-20T02:22:47.064Z,100.00
2023-04-20T02:25:14.157Z,100.00
2023-04-20T02:27:40.663Z,100.00
2023-04-20T02:30:08.337Z,100.00
2023-04-20T02:32:35.472Z,100.00
2023-04-20T02:35:04.188Z,100.00
2023-04-20T02:37:31.878Z,100.00
2023-04-20T02:39:58.467Z,100.00
2023-04-20T02:42:26.993Z,100.00
2023-04-20T02:44:56.039Z,100.00
2023-04-20T02:47:22.775Z,100.00
2023-04-20T02:49:50.856Z,100.00
2023-04-20T02:52:17.850Z,100.00
2023-04-20T02:54:44.681Z,100.00
2023-04-20T02:57:12.609Z,100.00
2023-04-20T02:59:39.398Z,100.00
2023-04-20T03:02:19.984Z,100.00
2023-04-20T03:04:47.374Z,100.00
2023-04-20T03:07:19.856Z,100.00
2023-04-20T03:09:47.975Z,100.00
2023-04-20T03:12:37.091Z,100.00
2023-04-20T03:15:22.711Z,100.00
2023-04-20T03:17:58.460Z,100.00
2023-04-20T03:20:25.637Z,100.00
2023-04-20T03:22:52.475Z,100.00
2023-04-20T03:25:22.426Z,100.00
2023-04-20T03:27:55.373Z,100.00
2023-04-20T03:30:22.022Z,100.00
2023-04-20T03:32:54.245Z,100.00
2023-04-20T03:35:21.168Z,100.00
2023-04-20T03:37:47.859Z,100.00
2023-04-20T03:40:14.919Z,100.00
2023-04-20T03:42:41.594Z,100.00
2023-04-20T03:45:08.826Z,100.00
2023-04-20T03:47:35.633Z,100.00
2023-04-20T03:50:02.197Z,100.00
2023-04-20T03:52:28.718Z,100.00
2023-04-20T03:54:55.745Z,100.00
2023-04-20T03:57:22.159Z,100.00
2023-04-20T03:59:48.967Z,100.00
2023-04-20T04:02:19.177Z,100.00
2023-04-20T04:04:47.014Z,100.00
2023-04-20T04:07:13.686Z,100.00
2023-04-20T04:09:42.412Z,100.00
2023-04-20T04:12:09.834Z,100.00
2023-04-20T04:14:37.634Z,100.00
2023-04-20T04:17:04.794Z,100.00
2023-04-20T04:19:33.678Z,100.00
2023-04-20T04:22:00.679Z,100.00
2023-04-20T04:24:28.501Z,100.00
2023-04-20T04:27:15.715Z,100.00
2023-04-20T04:29:51.172Z,100.00
2023-04-20T04:32:19.505Z,100.00
2023-04-20T04:34:46.374Z,100.00
2023-04-20T04:37:14.521Z,100.00
2023-04-20T04:39:46.720Z,100.00
2023-04-20T04:42:19.368Z,100.00
2023-04-20T04:44:47.005Z,100.00
2023-04-20T04:47:21.828Z,100.00
2023-04-20T04:49:49.150Z,99.71
2023-04-20T04:52:15.693Z,99.85
2023-04-20T04:54:42.396Z,99.34
2023-04-20T04:57:09.037Z,99.46
2023-04-20T04:59:36.380Z,99.32
2023-04-20T05:02:03.506Z,99.04
2023-04-20T05:04:30.627Z,98.79
2023-04-20T05:06:57.316Z,98.89
2023-04-20T05:09:23.982Z,98.61
2023-04-20T05:11:50.819Z,98.57
2023-04-20T05:14:17.547Z,98.50
2023-04-20T05:16:44.176Z,98.28
2023-04-20T05:19:10.730Z,98.62
2023-04-20T05:21:39.322Z,98.76
2023-04-20T05:24:06.552Z,98.42
2023-04-20T05:26:33.640Z,98.45
2023-04-20T05:29:00.336Z,98.22
2023-04-20T05:31:26.949Z,98.62
2023-04-20T05:33:53.517Z,99.11
2023-04-20T05:36:20.709Z,99.12
2023-04-20T05:38:47.277Z,99.32
2023-04-20T05:41:14.039Z,99.35
2023-04-20T05:43:41.286Z,99.16
2023-04-20T05:46:07.941Z,99.10
2023-04-20T05:48:35.096Z,99.12
2023-04-20T05:51:01.609Z,98.82
2023-04-20T05:53:28.175Z,98.54
2023-04-20T05:55:54.761Z,98.64
2023-04-20T05:58:21.360Z,98.72
2023-04-20T06:00:47.859Z,98.43
2023-04-20T06:03:14.525Z,98.10
2023-04-20T06:05:41.627Z,97.85
2023-04-20T06:08:08.791Z,97.58
2023-04-20T06:10:35.463Z,97.47
2023-04-20T06:13:01.984Z,96.37
2023-04-20T06:15:28.504Z,96.59
2023-04-20T06:17:55.145Z,95.61
2023-04-20T06:20:22.245Z,95.58
2023-04-20T06:22:49.107Z,95.36
2023-04-20T06:25:16.013Z,96.39
2023-04-20T06:27:42.676Z,97.26
2023-04-20T06:30:10.371Z,94.92
2023-04-20T06:32:38.110Z,93.87
2023-04-20T06:35:06.294Z,88.06
2023-04-20T06:37:33.043Z,89.31
2023-04-20T06:39:59.595Z,84.13
2023-04-20T06:42:26.445Z,84.51
2023-04-20T06:44:52.970Z,83.52
2023-04-20T06:47:19.801Z,83.25
2023-04-20T06:49:46.700Z,82.11
2023-04-20T06:52:15.953Z,81.42
2023-04-20T06:54:42.774Z,82.73
2023-04-20T06:57:09.750Z,82.50
2023-04-20T06:59:36.260Z,81.63
2023-04-20T07:02:03.144Z,82.55
2023-04-20T07:04:29.753Z,83.39
2023-04-20T07:06:56.455Z,84.19
2023-04-20T07:09:23.342Z,84.41
2023-04-20T07:11:50.126Z,84.65
2023-04-20T07:14:16.747Z,84.92
2023-04-20T07:16:43.550Z,83.66
2023-04-20T07:19:10.475Z,84.38
2023-04-20T07:21:38.805Z,82.92
2023-04-20T07:24:06.045Z,83.35
2023-04-20T07:26:32.602Z,83.42
2023-04-20T07:28:59.996Z,83.53
2023-04-20T07:31:26.511Z,82.11
2023-04-20T07:33:53.060Z,81.75
2023-04-20T07:36:21.876Z,81.43
2023-04-20T07:38:49.779Z,81.08
2023-04-20T07:41:16.463Z,81.07
2023-04-20T07:43:44.300Z,80.51
2023-04-20T07:46:10.948Z,79.78
2023-04-20T07:48:37.741Z,75.64
2023-04-20T07:51:04.680Z,75.85
2023-04-20T07:53:31.284Z,75.90
2023-04-20T07:55:57.789Z,75.89
2023-04-20T07:58:24.299Z,74.25
2023-04-20T08:00:50.790Z,74.14
2023-04-20T08:03:17.656Z,73.36
2023-04-20T08:05:44.652Z,72.55
2023-04-20T08:08:11.290Z,72.06
2023-04-20T08:10:38.178Z,71.07
2023-04-20T08:13:04.999Z,69.70
2023-04-20T08:15:31.629Z,65.55
2023-04-20T08:17:58.468Z,65.99
2023-04-20T08:20:25.356Z,64.98
2023-04-20T08:22:53.152Z,65.75
2023-04-20T08:25:19.824Z,64.47
2023-04-20T08:27:46.509Z,63.85
2023-04-20T08:30:13.077Z,65.44
2023-04-20T08:32:40.980Z,64.90
2023-04-20T08:35:08.590Z,63.09
2023-04-20T08:37:35.692Z,63.42
2023-04-20T08:40:02.272Z,63.70
2023-04-20T08:42:29.055Z,62.26
2023-04-20T08:44:56.052Z,62.46
2023-04-20T08:47:22.810Z,59.26
2023-04-20T08:49:53.858Z,59.67
2023-04-20T08:52:20.407Z,59.55
2023-04-20T08:54:55.908Z,58.66
2023-04-20T08:57:23.810Z,58.52
2023-04-20T08:59:50.737Z,59.53
2023-04-20T09:02:17.385Z,59.99
2023-04-20T09:04:44.360Z,60.45
2023-04-20T09:07:19.846Z,57.96
2023-04-20T09:09:57.142Z,58.12
2023-04-20T09:12:24.701Z,59.16
2023-04-20T09:14:52.651Z,60.00
2023-04-20T09:17:36.499Z,59.01
2023-04-20T09:20:07.349Z,59.89
2023-04-20T09:22:36.237Z,57.72
2023-04-20T09:25:19.355Z,58.06
2023-04-20T09:28:00.408Z,58.15
2023-04-20T09:30:37.877Z,58.23
2023-04-20T09:33:08.376Z,56.57
2023-04-20T09:35:35.068Z,56.81
2023-04-20T09:38:01.679Z,56.79
2023-04-20T09:40:28.826Z,56.00
2023-04-20T09:42:58.710Z,56.08
2023-04-20T09:45:25.737Z,55.35
2023-04-20T09:47:52.836Z,54.76
2023-04-20T09:50:27.092Z,54.53
2023-04-20T09:53:02.850Z,55.63
2023-04-20T09:55:31.498Z,55.50
2023-04-20T09:58:01.717Z,53.72
2023-04-20T10:00:29.092Z,53.77
2023-04-20T10:02:57.159Z,54.23
2023-04-20T10:05:35.783Z,55.25
2023-04-20T10:08:03.385Z,56.02
2023-04-20T10:10:30.344Z,56.25
2023-04-20T10:13:01.488Z,57.22
2023-04-20T10:15:41.819Z,56.41
2023-04-20T10:18:17.708Z,55.94
2023-04-20T10:20:45.017Z,55.31
2023-04-20T10:23:14.271Z,55.19
2023-04-20T10:25:41.666Z,56.23
2023-04-20T10:28:10.583Z,56.43
2023-04-20T10:30:38.133Z,56.45
2023-04-20T10:33:12.781Z,54.75
2023-04-20T10:35:55.408Z,54.75
2023-04-20T10:38:32.668Z,54.86
2023-04-20T10:41:09.606Z,54.98
2023-04-20T10:43:40.272Z,54.15
2023-04-20T10:46:23.884Z,53.71
2023-04-20T10:48:53.312Z,53.87
2023-04-20T10:51:20.405Z,54.22
2023-04-20T10:53:46.984Z,54.77
2023-04-20T10:56:13.844Z,55.66
2023-04-20T10:58:41.430Z,55.93
2023-04-20T11:01:08.231Z,55.91
2023-04-20T11:03:35.518Z,55.85
2023-04-20T11:06:04.250Z,56.18
2023-04-20T11:08:39.594Z,56.11
2023-04-20T11:11:07.784Z,55.17
2023-04-20T11:13:35.252Z,55.70
2023-04-20T11:16:10.999Z,55.46
2023-04-20T11:18:48.128Z,54.66
2023-04-20T11:21:14.770Z,54.80
2023-04-20T11:23:42.323Z,54.72
2023-04-20T11:26:08.895Z,54.87
2023-04-20T11:28:35.782Z,54.40
2023-04-20T11:31:02.676Z,54.05
2023-04-20T11:33:31.667Z,53.43
2023-04-20T11:35:59.265Z,52.03
2023-04-20T11:38:31.505Z,51.47
2023-04-20T11:41:04.883Z,50.45
2023-04-20T11:43:32.595Z,50.41
2023-04-20T11:46:01.105Z,51.22
2023-04-20T11:48:31.591Z,51.06
2023-04-20T11:50:58.677Z,50.10
2023-04-20T11:53:25.680Z,49.23
2023-04-20T11:55:53.760Z,49.99
2023-04-20T11:58:20.348Z,50.10
2023-04-20T12:00:47.150Z,49.44
2023-04-20T12:03:13.821Z,48.76
2023-04-20T12:05:40.839Z,47.16
2023-04-20T12:08:08.526Z,46.78
2023-04-20T12:10:35.407Z,46.77
2023-04-20T12:13:02.056Z,47.55
2023-04-20T12:15:29.083Z,46.40
2023-04-20T12:17:55.879Z,47.68
2023-04-20T12:20:22.611Z,47.60
2023-04-20T12:22:49.216Z,47.94
2023-04-20T12:25:16.043Z,46.93
2023-04-20T12:27:42.523Z,47.21
2023-04-20T12:30:09.497Z,48.06
2023-04-20T12:32:36.189Z,48.79
2023-04-20T12:35:03.079Z,48.75
2023-04-20T12:37:29.758Z,49.08
2023-04-20T12:39:57.664Z,49.03
2023-04-20T12:42:24.150Z,49.83
2023-04-20T12:44:54.426Z,50.21
2023-04-20T12:47:21.160Z,50.61
2023-04-20T12:49:48.222Z,51.51
2023-04-20T12:52:15.062Z,52.89
2023-04-20T12:54:44.008Z,54.12
2023-04-20T12:57:11.273Z,55.41
2023-04-20T12:59:37.781Z,54.16
2023-04-20T13:02:04.464Z,54.30
2023-04-20T13:04:31.281Z,53.39
2023-04-20T13:06:57.985Z,52.90
2023-04-20T13:09:27.585Z,53.81
2023-04-20T13:11:54.459Z,52.89
2023-04-20T13:14:21.921Z,53.40
2023-04-20T13:16:48.785Z,53.92
2023-04-20T13:19:15.725Z,54.61
2023-04-20T13:21:42.238Z,54.86
2023-04-20T13:24:09.804Z,55.78
2023-04-20T13:26:37.004Z,56.42
2023-04-20T13:29:03.619Z,56.70
2023-04-20T13:31:31.309Z,56.92
2023-04-20T13:33:57.925Z,57.49
2023-04-20T13:36:25.049Z,57.93
2023-04-20T13:38:53.405Z,58.68
2023-04-20T13:41:20.137Z,59.28
2023-04-20T13:43:46.959Z,59.30
2023-04-20T13:46:15.327Z,59.71
2023-04-20T13:48:42.320Z,60.57
2023-04-20T13:51:08.902Z,60.62
2023-04-20T13:53:35.466Z,61.13
2023-04-20T13:56:01.984Z,61.95
2023-04-20T13:58:29.071Z,61.54
2023-04-20T14:00:55.679Z,61.76
2023-04-20T14:03:22.443Z,61.40
2023-04-20T14:05:51.433Z,61.26
2023-04-20T14:08:18.318Z,61.27
2023-04-20T14:10:44.905Z,61.99
2023-04-20T14:13:11.574Z,61.31
2023-04-20T14:15:38.638Z,61.98
2023-04-20T14:18:05.177Z,62.44
2023-04-20T14:20:31.932Z,62.55
2023-04-20T14:22:58.658Z,62.48
2023-04-20T14:25:25.382Z,63.05
2023-04-20T14:27:52.052Z,64.12
2023-04-20T14:30:18.687Z,64.76
2023-04-20T14:32:58.848Z,65.82
2023-04-20T14:35:28.015Z,67.63
2023-04-20T14:37:54.951Z,69.95
2023-04-20T14:40:22.072Z,71.08
2023-04-20T14:42:49.000Z,72.14
2023-04-20T14:45:15.549Z,72.75
2023-04-20T14:47:42.074Z,73.48
2023-04-20T14:50:09.336Z,73.65
2023-04-20T14:52:36.009Z,74.33
2023-04-20T14:55:04.227Z,74.01
2023-04-20T14:57:31.584Z,74.69
2023-04-20T14:59:58.561Z,74.93
2023-04-20T15:02:25.478Z,75.05
2023-04-20T15:04:58.846Z,74.66
2023-04-20T15:07:25.681Z,75.29
2023-04-20T15:09:55.410Z,74.75
2023-04-20T15:12:22.317Z,75.16
2023-04-20T15:14:48.824Z,74.78
2023-04-20T15:17:15.821Z,74.45
2023-04-20T15:19:46.015Z,74.69
2023-04-20T15:22:13.645Z,74.48
2023-04-20T15:24:41.077Z,75.13
2023-04-20T15:27:08.346Z,75.17
2023-04-20T15:29:35.115Z,74.84
2023-04-20T15:32:01.826Z,74.69
2023-04-20T15:34:28.969Z,75.01
2023-04-20T15:36:56.357Z,75.41
2023-04-20T15:39:23.212Z,75.35
2023-04-20T15:41:49.771Z,75.17
2023-04-20T15:44:16.484Z,75.47
2023-04-20T15:46:43.232Z,75.08
2023-04-20T15:49:09.814Z,75.81
2023-04-20T15:51:39.323Z,76.31
2023-04-20T15:54:06.821Z,76.37
2023-04-20T15:56:33.379Z,76.68
2023-04-20T15:58:59.933Z,77.06
2023-04-20T16:01:29.024Z,77.96
2023-04-20T16:03:59.308Z,77.77
2023-04-20T16:06:26.552Z,78.07
2023-04-20T16:08:54.645Z,78.19
2023-04-20T16:11:21.962Z,78.53
2023-04-20T16:13:49.197Z,78.46
2023-04-20T16:16:16.553Z,79.22
2023-04-20T16:18:43.145Z,79.19
2023-04-20T16:21:09.641Z,78.76
2023-04-20T16:23:36.316Z,78.44
2023-04-20T16:26:03.076Z,78.20
2023-04-20T16:28:30.117Z,77.77
2023-04-20T16:30:57.095Z,77.85
2023-04-20T16:33:24.113Z,77.10
2023-04-20T16:35:51.556Z,76.06
2023-04-20T16:38:19.332Z,74.61
2023-04-20T16:40:45.948Z,73.72
2023-04-20T16:43:15.929Z,73.97
2023-04-20T16:45:42.856Z,73.61
2023-04-20T16:48:09.912Z,73.43
2023-04-20T16:50:38.054Z,73.53
2023-04-20T16:53:05.670Z,74.18
2023-04-20T16:55:32.689Z,74.22
2023-04-20T16:58:00.498Z,74.86
2023-04-20T17:00:33.559Z,75.29
2023-04-20T17:03:04.067Z,75.60
2023-04-20T17:05:31.008Z,75.97
2023-04-20T17:07:57.576Z,76.62
2023-04-20T17:10:24.597Z,76.58
2023-04-20T17:12:51.517Z,76.81
2023-04-20T17:15:17.987Z,77.15
2023-04-20T17:17:44.598Z,77.53
2023-04-20T17:20:11.598Z,77.89
2023-04-20T17:22:38.432Z,78.15
2023-04-20T17:25:07.402Z,78.22
2023-04-20T17:27:34.871Z,78.92
2023-04-20T17:30:02.221Z,79.26
2023-04-20T17:32:28.834Z,79.92
2023-04-20T17:34:55.588Z,79.82
2023-04-20T17:37:23.235Z,80.75
2023-04-20T17:39:50.372Z,80.50
2023-04-20T17:42:17.696Z,81.15
2023-04-20T17:44:44.385Z,80.72
2023-04-20T17:47:15.071Z,81.41
2023-04-20T17:49:41.959Z,81.28
2023-04-20T17:52:09.839Z,81.37
2023-04-20T17:54:36.679Z,81.79
2023-04-20T17:57:03.712Z,81.85
2023-04-20T17:59:31.230Z,81.93
2023-04-20T18:01:58.264Z,82.32
2023-04-20T18:04:25.473Z,82.41
2023-04-20T18:06:52.809Z,82.38
2023-04-20T18:09:19.390Z,82.68
2023-04-20T18:11:45.962Z,82.52
2023-04-20T18:14:12.482Z,82.63
2023-04-20T18:16:39.352Z,82.98
2023-04-20T18:19:06.005Z,83.63
2023-04-20T18:21:34.871Z,84.27
2023-04-20T18:24:02.026Z,84.62
2023-04-20T18:26:28.845Z,84.17
2023-04-20T18:28:55.325Z,85.03
2023-04-20T18:31:22.082Z,85.13
2023-04-20T18:33:48.692Z,85.19
2023-04-20T18:36:18.632Z,85.86
2023-04-20T18:38:45.138Z,85.86
2023-04-20T18:41:12.006Z,86.33
2023-04-20T18:43:39.022Z,86.79
2023-04-20T18:46:06.476Z,86.68
2023-04-20T18:48:33.352Z,87.04
2023-04-20T18:51:02.017Z,87.59
2023-04-20T18:53:29.701Z,87.96
2023-04-20T18:55:59.203Z,87.81
2023-04-20T18:58:25.794Z,87.99
2023-04-20T19:00:52.489Z,88.29
2023-04-20T19:03:19.903Z,88.91
2023-04-20T19:05:46.801Z,88.97
2023-04-20T19:08:13.566Z,89.69
2023-04-20T19:10:40.234Z,89.69
2023-04-20T19:13:06.767Z,89.62
2023-04-20T19:15:34.316Z,89.74
2023-04-20T19:18:01.335Z,89.88
2023-04-20T19:20:27.943Z,89.82
2023-04-20T19:22:54.592Z,89.89
2023-04-20T19:25:21.245Z,89.94
2023-04-20T19:27:48.018Z,90.11
2023-04-20T19:30:14.955Z,90.08
2023-04-20T19:32:41.590Z,90.45
2023-04-20T19:35:08.449Z,90.40
2023-04-20T19:37:35.075Z,90.49
2023-04-20T19:40:01.749Z,90.14
2023-04-20T19:42:28.355Z,90.52
2023-04-20T19:44:54.921Z,90.50
2023-04-20T19:47:21.528Z,90.85
2023-04-20T19:49:48.758Z,90.92
2023-04-20T19:52:15.877Z,91.30
2023-04-20T19:54:42.546Z,91.22
2023-04-20T19:57:09.799Z,91.90
2023-04-20T19:59:38.415Z,91.65
2023-04-20T20:02:05.622Z,91.50
2023-04-20T20:04:32.960Z,91.72
2023-04-20T20:06:59.582Z,92.16
2023-04-20T20:09:26.346Z,92.11
2023-04-20T20:11:52.941Z,92.73
2023-04-20T20:14:19.641Z,92.56
2023-04-20T20:16:46.366Z,92.48
2023-04-20T20:19:12.897Z,92.83
2023-04-20T20:21:39.350Z,93.07
2023-04-20T20:24:06.019Z,93.39
2023-04-20T20:26:32.675Z,93.33
2023-04-20T20:28:59.502Z,93.50
2023-04-20T20:31:26.206Z,93.30
2023-04-20T20:33:53.268Z,93.14
2023-04-20T20:36:19.820Z,93.37
2023-04-20T20:38:47.523Z,93.97
2023-04-20T20:41:14.290Z,93.58
2023-04-20T20:43:42.703Z,93.79
2023-04-20T20:46:09.614Z,93.42
2023-04-20T20:48:36.510Z,93.51
2023-04-20T20:51:03.318Z,93.49
2023-04-20T20:53:30.171Z,93.46
2023-04-20T20:55:56.721Z,93.96
2023-04-20T20:58:23.281Z,94.42
2023-04-20T21:00:50.259Z,94.67
2023-04-20T21:03:17.047Z,95.32
2023-04-20T21:05:43.672Z,95.74
2023-04-20T21:08:11.470Z,95.92
2023-04-20T21:10:38.165Z,95.91
2023-04-20T21:13:05.801Z,96.12
2023-04-20T21:15:33.282Z,96.42
2023-04-20T21:18:00.028Z,96.51
2023-04-20T21:20:26.827Z,96.87
2023-04-20T21:22:53.623Z,96.97
2023-04-20T21:25:20.478Z,96.97
2023-04-20T21:27:47.890Z,97.63
2023-04-20T21:30:14.579Z,97.89
2023-04-20T21:32:41.479Z,98.13
2023-04-20T21:35:08.831Z,98.42
2023-04-20T21:37:36.010Z,98.44
2023-04-20T21:40:02.551Z,98.29
2023-04-20T21:42:29.727Z,98.95
2023-04-20T21:44:56.630Z,98.79
2023-04-20T21:47:23.608Z,99.07
2023-04-20T21:49:50.322Z,99.41
2023-04-20T21:52:17.100Z,99.34
2023-04-20T21:54:43.904Z,99.47
2023-04-20T21:57:10.787Z,100.00
2023-04-20T21:59:37.255Z,100.00
2023-04-20T22:02:04.049Z,100.00
2023-04-20T22:04:32.105Z,100.00
2023-04-20T22:07:00.692Z,100.00
2023-04-20T22:09:27.632Z,100.00
2023-04-20T22:11:54.429Z,100.00
2023-04-20T22:14:21.514Z,100.00
2023-04-20T22:16:48.052Z,100.00
2023-04-20T22:19:14.902Z,100.00
2023-04-20T22:21:43.255Z,100.00
2023-04-20T22:24:09.905Z,100.00
2023-04-20T22:26:36.765Z,100.00
2023-04-20T22:29:03.543Z,100.00
2023-04-20T22:31:30.413Z,100.00
2023-04-20T22:33:57.310Z,100.00
2023-04-20T22:36:24.451Z,100.00
2023-04-20T22:38:51.662Z,100.00
2023-04-20T22:41:18.365Z,100.00
2023-04-20T22:43:46.997Z,100.00
2023-04-20T22:46:14.026Z,100.00
2023-04-20T22:48:41.863Z,100.00
2023-04-20T22:51:08.666Z,100.00
2023-04-20T22:53:35.210Z,100.00
2023-04-20T22:56:08.337Z,100.00
2023-04-20T22:58:35.034Z,100.00
2023-04-20T23:01:02.594Z,100.00
2023-04-20T23:03:29.366Z,100.00
2023-04-20T23:05:57.528Z,100.00
2023-04-20T23:08:25.735Z,100.00
2023-04-20T23:10:55.988Z,100.00
2023-04-20T23:13:24.677Z,100.00
2023-04-20T23:15:51.552Z,100.00
2023-04-20T23:18:18.344Z,100.00
2023-04-20T23:20:44.884Z,100.00
2023-04-20T23:23:11.676Z,100.00
2023-04-20T23:25:38.368Z,100.00
2023-04-20T23:28:05.065Z,100.00
2023-04-20T23:30:31.539Z,100.00
2023-04-20T23:32:58.127Z,100.00
2023-04-20T23:35:24.888Z,100.00
2023-04-20T23:37:51.540Z,100.00
2023-04-20T23:40:18.429Z,100.00
2023-04-20T23:42:44.949Z,100.00
2023-04-20T23:45:12.021Z,100.00
2023-04-20T23:47:39.434Z,100.00
2023-04-20T23:50:06.783Z,100.00
2023-04-20T23:52:33.366Z,100.00
2023-04-20T23:54:59.895Z,100.00
2023-04-20T23:57:26.566Z,100.00
2023-04-20T23:59:53.968Z,100.00
